Wetterdaten: Woche 21.08.06 - 27.08.06 (KW34)
Datum Zeit Temperatur Luftfeuchte Luftdruck Niederschlag Windrichtung Wind
21.08.2006 00:00 14,2 C 89 % 1022 hPa 0,0 l/m S 9,3 km/h (2 Bft)
21.08.2006 01:00 14,2 C 90 % 1022 hPa 0,0 l/m S-SW 8,0 km/h (2 Bft)
21.08.2006 02:00 14,5 C 87 % 1022 hPa 0,0 l/m W-SW 7,4 km/h (2 Bft)
21.08.2006 03:00 14,3 C 86 % 1022 hPa 0,0 l/m W-SW 8,1 km/h (2 Bft)
21.08.2006 04:00 13,8 C 88 % 1021 hPa 0,0 l/m W-SW 6,7 km/h (2 Bft)
21.08.2006 05:00 13,7 C 88 % 1021 hPa 0,0 l/m W-SW 8,3 km/h (2 Bft)
21.08.2006 06:00 13,6 C 88 % 1021 hPa 0,0 l/m S 7,2 km/h (2 Bft)
21.08.2006 07:00 13,3 C 92 % 1021 hPa 0,0 l/m S 7,3 km/h (2 Bft)
21.08.2006 08:00 14,0 C 92 % 1021 hPa 0,0 l/m S 9,2 km/h (2 Bft)
21.08.2006 09:00 15,1 C 86 % 1021 hPa 0,0 l/m S-SW 9,4 km/h (2 Bft)
21.08.2006 10:00 16,2 C 76 % 1021 hPa 0,0 l/m S-SW 12,7 km/h (3 Bft)
21.08.2006 11:00 17,2 C 72 % 1021 hPa 0,0 l/m S-SW 12,8 km/h (3 Bft)
21.08.2006 12:00 18,0 C 69 % 1021 hPa 0,0 l/m W-SW 12,3 km/h (3 Bft)
21.08.2006 13:00 18,4 C 66 % 1021 hPa 0,0 l/m W-SW 14,9 km/h (3 Bft)
21.08.2006 14:00 17,4 C 76 % 1021 hPa 1,0 l/m W-SW 12,7 km/h (3 Bft)
21.08.2006 15:00 17,4 C 79 % 1020 hPa 1,0 l/m SW 9,6 km/h (2 Bft)
21.08.2006 16:00 16,9 C 87 % 1020 hPa 0,0 l/m W-SW 5,8 km/h (2 Bft)
21.08.2006 17:00 17,2 C 81 % 1020 hPa 0,0 l/m SW 5,6 km/h (1 Bft)
21.08.2006 18:00 17,3 C 83 % 1019 hPa 0,0 l/m W-SW 0,9 km/h (0 Bft)
21.08.2006 19:00 16,6 C 83 % 1019 hPa 0,0 l/m NW 3,1 km/h (1 Bft)
21.08.2006 20:00 15,4 C 92 % 1018 hPa 0,0 l/m W-SW 0,2 km/h (0 Bft)
21.08.2006 21:00 14,2 C 94 % 1019 hPa 0,0 l/m N 0,0 km/h (0 Bft)
21.08.2006 22:00 13,7 C 98 % 1019 hPa 0,0 l/m N 0,0 km/h (0 Bft)
21.08.2006 23:00 13,7 C 99 % 1018 hPa 0,0 l/m W-SW 1,6 km/h (1 Bft)
22.08.2006 00:00 14,1 C 94 % 1018 hPa 0,0 l/m SW 3,7 km/h (1 Bft)
22.08.2006 01:00 14,3 C 81 % 1018 hPa 0,0 l/m S 8,6 km/h (2 Bft)
22.08.2006 02:00 14,1 C 76 % 1017 hPa 0,0 l/m SW 10,0 km/h (2 Bft)
22.08.2006 03:00 13,3 C 89 % 1017 hPa 1,0 l/m W-SW 7,7 km/h (2 Bft)
22.08.2006 04:00 12,5 C 98 % 1017 hPa 3,0 l/m S-SW 2,8 km/h (1 Bft)
22.08.2006 05:00 12,4 C 100 % 1017 hPa 1,0 l/m W-SW 8,6 km/h (2 Bft)
22.08.2006 06:00 12,5 C 100 % 1017 hPa 0,0 l/m SW 9,4 km/h (2 Bft)
22.08.2006 07:00 12,9 C 100 % 1018 hPa 0,0 l/m W-SW 8,1 km/h (2 Bft)
22.08.2006 08:00 13,4 C 100 % 1018 hPa 0,0 l/m SW 7,8 km/h (2 Bft)
22.08.2006 09:00 14,7 C 99 % 1018 hPa 0,0 l/m W-SW 8,4 km/h (2 Bft)
22.08.2006 10:00 15,5 C 91 % 1018 hPa 0,0 l/m SW 8,1 km/h (2 Bft)
22.08.2006 11:00 15,6 C 87 % 1018 hPa 0,0 l/m SW 10,0 km/h (2 Bft)
22.08.2006 12:00 16,2 C 82 % 1018 hPa 0,0 l/m W-SW 8,2 km/h (2 Bft)
22.08.2006 13:00 16,5 C 75 % 1018 hPa 0,0 l/m W 10,3 km/h (2 Bft)
22.08.2006 14:00 18,0 C 65 % 1018 hPa 0,0 l/m W-SW 9,6 km/h (2 Bft)
22.08.2006 15:00 19,0 C 51 % 1018 hPa 0,0 l/m W-SW 10,6 km/h (2 Bft)
22.08.2006 16:00 19,1 C 51 % 1018 hPa 0,0 l/m W 10,0 km/h (2 Bft)
22.08.2006 17:00 18,3 C 71 % 1018 hPa 0,0 l/m W-SW 6,5 km/h (2 Bft)
22.08.2006 18:00 17,4 C 74 % 1018 hPa 0,0 l/m SW 6,3 km/h (2 Bft)
22.08.2006 19:00 16,9 C 79 % 1018 hPa 0,0 l/m S 5,1 km/h (1 Bft)
22.08.2006 20:00 16,0 C 86 % 1018 hPa 0,0 l/m S 2,4 km/h (1 Bft)
22.08.2006 21:00 15,4 C 88 % 1019 hPa 0,0 l/m S-SW 1,0 km/h (0 Bft)
22.08.2006 22:00 14,4 C 93 % 1019 hPa 0,0 l/m N 0,0 km/h (0 Bft)
22.08.2006 23:00 13,8 C 97 % 1018 hPa 0,0 l/m N 0,0 km/h (0 Bft)
23.08.2006 00:00 13,3 C 98 % 1018 hPa 0,0 l/m N 0,5 km/h (0 Bft)
23.08.2006 01:00 12,5 C 98 % 1018 hPa 0,0 l/m N 0,1 km/h (0 Bft)
23.08.2006 02:00 11,7 C 98 % 1018 hPa 0,0 l/m N 0,0 km/h (0 Bft)
23.08.2006 03:00 10,8 C 98 % 1018 hPa 0,0 l/m N 0,0 km/h (0 Bft)
23.08.2006 04:00 9,9 C 100 % 1018 hPa 0,0 l/m N 0,0 km/h (0 Bft)
23.08.2006 05:00 9,6 C 100 % 1017 hPa 0,0 l/m N 0,0 km/h (0 Bft)
23.08.2006 06:00 10,0 C 100 % 1017 hPa 0,0 l/m N 0,0 km/h (0 Bft)
23.08.2006 07:00 9,8 C 100 % 1017 hPa 0,0 l/m N 0,0 km/h (0 Bft)
23.08.2006 08:00 10,9 C 100 % 1017 hPa 0,0 l/m N 0,0 km/h (0 Bft)
23.08.2006 09:00 13,2 C 98 % 1017 hPa 0,0 l/m O-NO 0,8 km/h (0 Bft)
23.08.2006 10:00 16,2 C 78 % 1017 hPa 0,0 l/m O 5,3 km/h (1 Bft)
23.08.2006 11:00 18,8 C 61 % 1017 hPa 0,0 l/m NO 5,9 km/h (2 Bft)
23.08.2006 12:00 19,5 C 55 % 1016 hPa 0,0 l/m O 5,1 km/h (1 Bft)
23.08.2006 13:00 20,0 C 53 % 1016 hPa 0,0 l/m NW 6,5 km/h (2 Bft)
23.08.2006 14:00 21,1 C 48 % 1016 hPa 0,0 l/m N-NW 5,6 km/h (1 Bft)
23.08.2006 15:00 21,3 C 47 % 1015 hPa 0,0 l/m N 6,6 km/h (2 Bft)
23.08.2006 16:00 20,7 C 47 % 1015 hPa 0,0 l/m N 2,8 km/h (1 Bft)
23.08.2006 17:00 21,4 C 45 % 1015 hPa 0,0 l/m NO 3,1 km/h (1 Bft)
23.08.2006 18:00 21,3 C 45 % 1014 hPa 0,0 l/m N-NO 5,5 km/h (1 Bft)
23.08.2006 19:00 19,7 C 51 % 1014 hPa 0,0 l/m O-NO 2,6 km/h (1 Bft)
23.08.2006 20:00 16,8 C 68 % 1014 hPa 0,0 l/m N 0,0 km/h (0 Bft)
23.08.2006 21:00 14,5 C 78 % 1014 hPa 0,0 l/m N 0,0 km/h (0 Bft)
23.08.2006 22:00 13,4 C 85 % 1014 hPa 0,0 l/m N 0,0 km/h (0 Bft)
23.08.2006 23:00 12,7 C 88 % 1014 hPa 0,0 l/m N 0,0 km/h (0 Bft)
24.08.2006 00:00 12,3 C 91 % 1014 hPa 0,0 l/m N-NW 0,1 km/h (0 Bft)
24.08.2006 01:00 11,9 C 93 % 1013 hPa 0,0 l/m N 0,0 km/h (0 Bft)
24.08.2006 02:00 11,7 C 95 % 1013 hPa 0,0 l/m N 0,0 km/h (0 Bft)
24.08.2006 03:00 11,7 C 96 % 1012 hPa 0,0 l/m N 0,0 km/h (0 Bft)
24.08.2006 04:00 11,3 C 97 % 1012 hPa 0,0 l/m N 0,0 km/h (0 Bft)
24.08.2006 05:00 10,9 C 98 % 1012 hPa 0,0 l/m N 0,0 km/h (0 Bft)
24.08.2006 06:00 10,8 C 100 % 1012 hPa 0,0 l/m N 0,0 km/h (0 Bft)
24.08.2006 07:00 10,7 C 100 % 1012 hPa 0,0 l/m N 0,0 km/h (0 Bft)
24.08.2006 08:00 11,9 C 100 % 1011 hPa 0,0 l/m S-SO 0,7 km/h (0 Bft)
24.08.2006 09:00 14,9 C 94 % 1011 hPa 0,0 l/m O-SO 6,5 km/h (2 Bft)
24.08.2006 10:00 16,5 C 89 % 1011 hPa 0,0 l/m O 3,8 km/h (1 Bft)
24.08.2006 11:00 18,6 C 80 % 1011 hPa 0,0 l/m W-SW 6,7 km/h (2 Bft)
24.08.2006 12:00 19,6 C 70 % 1011 hPa 0,0 l/m S 8,6 km/h (2 Bft)
24.08.2006 13:00 17,6 C 79 % 1011 hPa 1,0 l/m W-SW 10,5 km/h (2 Bft)
24.08.2006 14:00 15,6 C 92 % 1011 hPa 2,0 l/m W-SW 8,3 km/h (2 Bft)
24.08.2006 15:00 15,7 C 92 % 1011 hPa 0,0 l/m S 15,5 km/h (3 Bft)
24.08.2006 16:00 16,0 C 92 % 1011 hPa 0,0 l/m SW 11,4 km/h (2 Bft)
24.08.2006 17:00 15,7 C 85 % 1012 hPa 2,0 l/m W 7,4 km/h (2 Bft)
24.08.2006 18:00 13,6 C 95 % 1011 hPa 0,0 l/m S-SW 7,5 km/h (2 Bft)
24.08.2006 19:00 13,7 C 98 % 1012 hPa 0,0 l/m S 9,9 km/h (2 Bft)
24.08.2006 20:00 13,6 C 99 % 1012 hPa 0,0 l/m S-SW 9,8 km/h (2 Bft)
24.08.2006 21:00 13,2 C 98 % 1013 hPa 0,0 l/m S 1,4 km/h (1 Bft)
24.08.2006 22:00 12,6 C 100 % 1013 hPa 0,0 l/m S 3,6 km/h (1 Bft)
24.08.2006 23:00 12,3 C 100 % 1013 hPa 0,0 l/m S 4,5 km/h (1 Bft)
25.08.2006 00:00 11,8 C 100 % 1013 hPa 0,0 l/m S 6,1 km/h (2 Bft)
25.08.2006 01:00 11,5 C 100 % 1013 hPa 0,0 l/m S 5,7 km/h (1 Bft)
25.08.2006 02:00 11,3 C 100 % 1012 hPa 0,0 l/m S-SW 9,4 km/h (2 Bft)
25.08.2006 03:00 10,5 C 100 % 1012 hPa 0,0 l/m S 9,9 km/h (2 Bft)
25.08.2006 04:00 10,0 C 100 % 1012 hPa 0,0 l/m S 10,9 km/h (2 Bft)
25.08.2006 05:00 9,7 C 100 % 1011 hPa 0,0 l/m S 9,9 km/h (2 Bft)
25.08.2006 06:00 10,4 C 99 % 1011 hPa 0,0 l/m SW 10,6 km/h (2 Bft)
25.08.2006 07:00 11,2 C 93 % 1011 hPa 0,0 l/m S 9,9 km/h (2 Bft)
25.08.2006 08:00 11,8 C 90 % 1011 hPa 0,0 l/m S 12,0 km/h (2 Bft)
25.08.2006 09:00 12,7 C 83 % 1011 hPa 0,0 l/m S-SW 12,9 km/h (3 Bft)
25.08.2006 10:00 14,2 C 72 % 1011 hPa 0,0 l/m S-SW 14,8 km/h (3 Bft)
25.08.2006 11:00 15,7 C 62 % 1011 hPa 0,0 l/m W-SW 13,4 km/h (3 Bft)
25.08.2006 12:00 17,5 C 52 % 1010 hPa 0,0 l/m SW 14,1 km/h (3 Bft)
25.08.2006 13:00 17,6 C 52 % 1010 hPa 0,0 l/m S-SW 12,7 km/h (3 Bft)
25.08.2006 14:00 17,4 C 52 % 1010 hPa 0,0 l/m W-SW 11,6 km/h (2 Bft)
25.08.2006 15:00 17,9 C 50 % 1010 hPa 0,0 l/m W-SW 12,3 km/h (3 Bft)
25.08.2006 16:00 18,0 C 48 % 1010 hPa 0,0 l/m W-SW 11,1 km/h (2 Bft)
25.08.2006 17:00 18,0 C 52 % 1010 hPa 0,0 l/m NW 10,1 km/h (2 Bft)
25.08.2006 18:00 17,7 C 57 % 1010 hPa 0,0 l/m W-NW 4,8 km/h (1 Bft)
25.08.2006 19:00 16,4 C 67 % 1010 hPa 0,0 l/m NW 0,5 km/h (0 Bft)
25.08.2006 20:00 14,3 C 79 % 1010 hPa 0,0 l/m N 0,0 km/h (0 Bft)
25.08.2006 21:00 12,6 C 86 % 1011 hPa 0,0 l/m N 0,0 km/h (0 Bft)
25.08.2006 22:00 11,5 C 89 % 1011 hPa 0,0 l/m N 0,0 km/h (0 Bft)
25.08.2006 23:00 10,5 C 94 % 1011 hPa 0,0 l/m N 0,0 km/h (0 Bft)
26.08.2006 00:00 9,8 C 97 % 1011 hPa 0,0 l/m N 0,0 km/h (0 Bft)
26.08.2006 01:00 9,5 C 99 % 1011 hPa 0,0 l/m N 0,0 km/h (0 Bft)
26.08.2006 02:00 8,8 C 99 % 1011 hPa 0,0 l/m N 0,0 km/h (0 Bft)
26.08.2006 03:00 8,2 C 100 % 1011 hPa 0,0 l/m N 0,0 km/h (0 Bft)
26.08.2006 04:00 7,5 C 100 % 1011 hPa 0,0 l/m N 0,0 km/h (0 Bft)
26.08.2006 05:00 6,9 C 100 % 1011 hPa 0,0 l/m N-NW 0,2 km/h (0 Bft)
26.08.2006 06:00 6,7 C 100 % 1011 hPa 0,0 l/m N 0,0 km/h (0 Bft)
26.08.2006 07:00 7,2 C 100 % 1011 hPa 0,0 l/m N 0,0 km/h (0 Bft)
26.08.2006 08:00 9,0 C 100 % 1012 hPa 0,0 l/m S 1,1 km/h (0 Bft)
26.08.2006 09:00 12,3 C 96 % 1012 hPa 0,0 l/m S 5,7 km/h (1 Bft)
26.08.2006 10:00 15,5 C 76 % 1011 hPa 0,0 l/m S-SW 6,7 km/h (2 Bft)
26.08.2006 11:00 18,0 C 61 % 1011 hPa 0,0 l/m S 9,6 km/h (2 Bft)
26.08.2006 12:00 18,3 C 51 % 1011 hPa 0,0 l/m S-SW 11,1 km/h (2 Bft)
26.08.2006 13:00 19,2 C 44 % 1011 hPa 0,0 l/m SW 11,1 km/h (2 Bft)
26.08.2006 14:00 20,1 C 41 % 1010 hPa 0,0 l/m S-SW 10,8 km/h (2 Bft)
26.08.2006 15:00 19,7 C 40 % 1010 hPa 0,0 l/m W 8,6 km/h (2 Bft)
26.08.2006 16:00 19,9 C 41 % 1010 hPa 0,0 l/m W-SW 7,8 km/h (2 Bft)
26.08.2006 17:00 18,9 C 45 % 1010 hPa 0,0 l/m W-SW 7,9 km/h (2 Bft)
26.08.2006 18:00 16,3 C 59 % 1011 hPa 0,0 l/m W-SW 12,5 km/h (3 Bft)
26.08.2006 19:00 13,3 C 79 % 1011 hPa 0,0 l/m W-SW 7,9 km/h (2 Bft)
26.08.2006 20:00 12,4 C 90 % 1011 hPa 0,0 l/m SO 1,1 km/h (1 Bft)
26.08.2006 21:00 11,7 C 95 % 1012 hPa 0,0 l/m S 5,2 km/h (1 Bft)
26.08.2006 22:00 12,4 C 99 % 1012 hPa 0,0 l/m S 9,7 km/h (2 Bft)
26.08.2006 23:00 12,8 C 98 % 1012 hPa 0,0 l/m S 9,2 km/h (2 Bft)
27.08.2006 00:00 12,8 C 99 % 1012 hPa 0,0 l/m S-SW 8,9 km/h (2 Bft)
27.08.2006 01:00 12,8 C 100 % 1012 hPa 1,0 l/m S-SW 9,9 km/h (2 Bft)
27.08.2006 02:00 12,6 C 100 % 1012 hPa 0,0 l/m S 8,1 km/h (2 Bft)
27.08.2006 03:00 12,3 C 100 % 1012 hPa 0,0 l/m S-SW 8,4 km/h (2 Bft)
27.08.2006 04:00 12,3 C 100 % 1012 hPa 0,0 l/m SW 7,9 km/h (2 Bft)
27.08.2006 05:00 12,3 C 100 % 1012 hPa 1,0 l/m SW 7,8 km/h (2 Bft)
27.08.2006 06:00 12,3 C 100 % 1012 hPa 0,0 l/m W-SW 5,1 km/h (1 Bft)
27.08.2006 07:00 12,5 C 100 % 1013 hPa 0,0 l/m W-SW 5,0 km/h (1 Bft)
27.08.2006 08:00 13,0 C 100 % 1013 hPa 0,0 l/m W-SW 7,9 km/h (2 Bft)
27.08.2006 09:00 14,0 C 95 % 1013 hPa 0,0 l/m W-SW 8,4 km/h (2 Bft)
27.08.2006 10:00 15,1 C 83 % 1014 hPa 0,0 l/m W-SW 9,0 km/h (2 Bft)
27.08.2006 11:00 16,0 C 76 % 1014 hPa 0,0 l/m SW 9,0 km/h (2 Bft)
27.08.2006 12:00 15,4 C 83 % 1014 hPa 0,0 l/m W-SW 7,7 km/h (2 Bft)
27.08.2006 13:00 15,8 C 87 % 1014 hPa 1,0 l/m SW 8,4 km/h (2 Bft)
27.08.2006 14:00 16,0 C 83 % 1014 hPa 0,0 l/m W-SW 8,1 km/h (2 Bft)
27.08.2006 15:00 16,7 C 82 % 1014 hPa 0,0 l/m S-SW 13,2 km/h (3 Bft)
27.08.2006 16:00 16,8 C 76 % 1014 hPa 0,0 l/m SW 13,5 km/h (3 Bft)
27.08.2006 17:00 16,0 C 81 % 1014 hPa 0,0 l/m S 11,9 km/h (2 Bft)
27.08.2006 18:00 15,3 C 83 % 1015 hPa 0,0 l/m SW 8,6 km/h (2 Bft)
27.08.2006 19:00 13,9 C 86 % 1015 hPa 0,0 l/m S-SW 4,5 km/h (1 Bft)
27.08.2006 20:00 13,4 C 92 % 1016 hPa 0,0 l/m S-SW 6,8 km/h (2 Bft)
27.08.2006 21:00 13,2 C 96 % 1016 hPa 0,0 l/m S-SW 8,2 km/h (2 Bft)
27.08.2006 22:00 13,1 C 100 % 1016 hPa 0,0 l/m S 7,4 km/h (2 Bft)
27.08.2006 23:00 13,2 C 98 % 1016 hPa 0,0 l/m S-SW 8,5 km/h (2 Bft)
Min-Datum _ 26.08.06 26.08.06 24.08.06 - - 21.08.06
_ Min-Zeit 05:47 15:53 12:34 - - 00:24
Minimum _ 6,7 C 37 % 1010 hPa - - 0,0 km/h (0 Bft)
Max-Datum _ 23.08.06 22.08.06 21.08.06 22.08.06 - 25.08.06
_ Max-Zeit 14:29 05:00 00:00 04:02 - 10:18
Maximum _ 21,7 C 100 % 1022 hPa 3,0 l/m - 35,3 km/h
S-SW (5 Bft)
Durchschnitt _ 14,4 C 84 % 1015 hPa #15,0 l/m W-SW 6,2 km/h (2 Bft)

Durchschnitt Minimum Temp.13,9 C
Durchschnitt Maximum Temp.14,9 C